Titusville, FL

3:51 AM EDT on October 31, 2014 (GMT -0400)
Patrick Air Force Base | Change Station
CLOSE
Current Station
Airport
Location: Cocoa Beach,
Elevation: 10 ft
Nearby Weather Stations

Elev 10 ft 28.24 °N, 80.60 °W | Updated 37 minutes ago

Partly Cloudy
Partly Cloudy
70 °F
Feels Like 70 °F
N
4
Wind Variable Wind from ESE

Today
High -- | Low -- °F
--% Chance of Precip.
Yesterday
High -- | Low -- °F
Precip. -- in
7:34 AM 6:38 PM
First Quarter, 52% visible
Pressure 29.84 in
Visibility 10.0 miles
Clouds Scattered Clouds 6000 ft
Mostly Cloudy 9000 ft
Dew Point 68 °F
Humidity 94%
Rainfall 0.02 in
Snow Depth Not available.
UV 0 out of 12
Pollen 4.90 out of 12
Air Quality Not available.
Flu Activity Not available.
SPECI KCOF 310714Z AUTO 11003KT 10SM SCT060 BKN090 21/20 A2984 RMK AO2 DZB0705

More Conditions Fewer Conditions

Pressure 29.84 in
Visibility 10.0 miles
Clouds Scattered Clouds 6000 ft
Mostly Cloudy 9000 ft
Dew Point 68 °F
Humidity 94%
Rainfall 0.02 in
Snow Depth Not available.
UV 0 out of 12
Pollen 4.90 out of 12
Air Quality Not available.
Flu Activity Not available.
SPECI KCOF 310714Z AUTO 11003KT 10SM SCT060 BKN090 21/20 A2984 RMK AO2 DZB0705

More Conditions Fewer Conditions

Nowcast | as of 12:19 am EDT on October 31, 2014

Isolated showers and thunderstorms ahead of a cold front will produce moderate to heavy rain along and south of the I-4 corridor as they move east-northeast at 10 to 15 mph. Additional details...including graphics are available online at: http://www.Srh.NOAA.Gov/mlb/blog.Php

×

10-Day Weather Forecast

Almanac

Astronomy

Oct. 31, 2014 Rise Set
Actual Time
Civil Twilight
Nautical Twilight
Astronomical Twilight
Moon
Length of Visible Light
Length of Day
Tomorrow will be .
, % of the Moon is Illuminated

Today's Extremes

State Highs State Lows

Community

WunderPhotos

Upload Photos

1,766,573 photos uploaded!

WunderBlogs® & News

Nearby

Air Quality

  Air Quality AQ Index Pollutant
Not available.

Snow Depth

Station Depth Elevation

Earthquake Activity

City Distance Mag. Time & Date
Minimum magnitude displayed is 2.5.

Coastal Water Temperatures

Place Temperature

Nearby Weather Stations